Time;durP1;ratioP1;P1;durP2;ratioP2;P2;SDS_P1;SDS_P2;PMS_P1;PMS_P2;Temp;Humidity;BMP_temperature;BMP_pressure;BME280_temperature;BME280_humidity;BME280_pressure;Samples;Min_cycle;Max_cycle;Signal;HPM_P1;HPM_P2
2021/04/17 00:02:21;;;;;;;4.43;3.70;;;;;;;5.79;57.95;99606.91;3550444;40;20325;-66
2021/04/17 00:04:48;;;;;;;4.70;4.00;;;;;;;5.76;57.86;99606.41;3550308;40;20156;-66
2021/04/17 00:07:16;;;;;;;4.68;3.55;;;;;;;5.75;58.11;99602.91;3550120;40;20090;-66
2021/04/17 00:09:44;;;;;;;6.53;3.53;;;;;;;5.73;58.07;99594.38;3550021;40;20057;-66
2021/04/17 00:12:14;;;;;;;4.88;4.13;;;;;;;5.71;58.18;99598.94;3550902;40;20054;-66
2021/04/17 00:14:43;;;;;;;7.82;5.05;;;;;;;5.71;58.33;99594.53;3551578;40;20356;-66
2021/04/17 00:17:13;;;;;;;6.70;4.15;;;;;;;5.73;58.45;99591.75;3551175;40;20090;-67
2021/04/17 00:19:41;;;;;;;7.15;4.20;;;;;;;5.80;58.20;99592.84;3551350;40;20157;-67
2021/04/17 00:22:08;;;;;;;4.38;3.78;;;;;;;5.86;58.03;99581.75;3551206;40;20056;-66
2021/04/17 00:24:35;;;;;;;6.10;3.92;;;;;;;5.82;58.24;99593.50;3550988;40;20101;-68
2021/04/17 00:27:03;;;;;;;4.47;4.05;;;;;;;5.83;58.17;99584.66;3550678;40;20068;-67
2021/04/17 00:29:31;;;;;;;5.25;3.80;;;;;;;5.78;58.39;99579.03;3550905;40;20050;-68
2021/04/17 00:31:59;;;;;;;6.53;4.05;;;;;;;5.74;58.07;99574.22;3551084;40;20046;-68
2021/04/17 00:34:26;;;;;;;5.50;3.85;;;;;;;5.67;58.47;99577.41;3542130;40;20039;-68
2021/04/17 00:36:53;;;;;;;4.15;3.67;;;;;;;5.64;58.50;99576.88;3550904;40;20046;-68
2021/04/17 00:39:22;;;;;;;5.55;3.90;;;;;;;5.56;58.37;99571.50;3551308;40;20078;-68
2021/04/17 00:41:49;;;;;;;4.18;3.20;;;;;;;5.37;59.02;99570.56;3551244;40;20058;-67
2021/04/17 00:44:15;;;;;;;5.20;3.65;;;;;;;5.33;59.35;99576.22;3541723;40;20049;-67
2021/04/17 00:46:43;;;;;;;4.30;3.75;;;;;;;5.33;59.30;99571.81;3549957;40;20046;-67
2021/04/17 00:49:12;;;;;;;4.93;3.30;;;;;;;5.38;59.22;99564.34;3550005;40;20107;-67
2021/04/17 00:51:41;;;;;;;6.78;4.05;;;;;;;5.42;59.31;99564.91;3550407;40;20327;-66
2021/04/17 00:54:08;;;;;;;5.43;4.18;;;;;;;5.42;59.31;99559.66;3550464;40;20053;-65
2021/04/17 00:56:35;;;;;;;4.65;3.88;;;;;;;5.44;59.23;99563.78;3549689;40;20049;-66
2021/04/17 00:59:05;;;;;;;7.03;3.85;;;;;;;5.43;59.15;99562.16;3549922;40;20090;-65
2021/04/17 01:01:32;;;;;;;7.60;4.15;;;;;;;5.35;59.04;99559.41;3549926;40;20054;-66
2021/04/17 01:04:07;;;;;;;4.75;4.05;;;;;;;5.38;59.27;99566.16;3549778;40;20331;-66
2021/04/17 01:06:39;;;;;;;6.57;4.13;;;;;;;5.39;59.17;99566.03;3550041;40;20046;-65
2021/04/17 01:09:10;;;;;;;6.20;4.28;;;;;;;5.30;59.00;99561.59;3540447;40;20061;-66
2021/04/17 01:11:45;;;;;;;9.65;5.28;;;;;;;5.14;59.63;99562.19;3549746;40;20062;-65
2021/04/17 01:14:14;;;;;;;5.32;4.28;;;;;;;5.01;59.88;99560.81;3550137;40;20299;-66
2021/04/17 01:16:42;;;;;;;5.15;4.15;;;;;;;4.98;60.17;99556.69;3551127;40;20050;-66
2021/04/17 01:19:17;;;;;;;6.60;4.72;;;;;;;4.94;60.30;99556.13;3541935;40;20396;-66
2021/04/17 01:21:44;;;;;;;5.05;4.03;;;;;;;4.86;60.36;99556.00;3551098;40;20170;-66
2021/04/17 01:24:17;;;;;;;7.80;4.20;;;;;;;4.71;60.63;99555.56;3550852;40;20083;-67
2021/04/17 01:26:45;;;;;;;5.88;4.18;;;;;;;4.65;60.63;99560.50;3550301;40;20050;-66
2021/04/17 01:29:12;;;;;;;5.50;4.07;;;;;;;4.56;60.87;99561.31;3549499;40;20095;-67
2021/04/17 01:31:40;;;;;;;4.95;4.00;;;;;;;4.42;61.06;99563.38;3550066;40;20057;-65
2021/04/17 01:34:08;;;;;;;6.28;3.78;;;;;;;4.31;61.74;99555.63;3549500;40;20052;-65
2021/04/17 01:36:37;;;;;;;7.72;4.32;;;;;;;4.30;61.78;99555.78;3549799;40;20053;-65
2021/04/17 01:39:07;;;;;;;4.22;3.78;;;;;;;4.29;61.94;99552.34;3549270;40;20050;-65
2021/04/17 01:41:37;;;;;;;5.00;3.80;;;;;;;4.26;61.96;99554.38;3549641;40;20078;-67
2021/04/17 01:44:10;;;;;;;4.55;3.92;;;;;;;4.25;61.90;99550.94;3540156;40;20054;-66
2021/04/17 01:46:43;;;;;;;6.68;3.70;;;;;;;4.18;61.86;99553.25;3549982;40;20082;-65
2021/04/17 01:49:13;;;;;;;4.72;3.08;;;;;;;4.07;62.28;99555.97;3553116;40;20140;-66
2021/04/17 01:51:41;;;;;;;4.82;3.25;;;;;;;4.01;62.35;99553.06;3554335;40;20057;-65
2021/04/17 01:54:14;;;;;;;3.72;3.00;;;;;;;3.98;62.60;99552.34;3553826;40;20323;-65
2021/04/17 01:56:44;;;;;;;4.10;2.80;;;;;;;3.96;62.75;99549.06;3552802;40;20065;-66
2021/04/17 01:59:13;;;;;;;3.70;2.83;;;;;;;3.92;62.77;99549.47;3549608;40;20374;-66
2021/04/17 02:01:39;;;;;;;3.33;2.60;;;;;;;3.78;63.01;99552.41;3541919;40;20331;-66
2021/04/17 02:04:07;;;;;;;4.18;2.58;;;;;;;3.72;63.14;99551.16;3550290;40;20042;-66
2021/04/17 02:06:35;;;;;;;3.97;2.90;;;;;;;3.65;63.42;99555.25;3549908;40;20086;-66
2021/04/17 02:09:03;;;;;;;3.95;2.50;;;;;;;3.68;63.65;99549.75;3549180;40;20124;-66
2021/04/17 02:11:31;;;;;;;3.92;2.00;;;;;;;3.77;63.56;99554.22;3549795;40;20104;-66
2021/04/17 02:13:59;;;;;;;3.38;2.40;;;;;;;3.76;63.17;99549.13;3549696;40;20428;-66
2021/04/17 02:16:31;;;;;;;3.35;2.42;;;;;;;3.79;63.37;99548.84;3550120;40;20058;-67
2021/04/17 02:19:01;;;;;;;3.03;2.47;;;;;;;3.78;63.29;99547.19;3550475;40;20061;-67
2021/04/17 02:21:33;;;;;;;3.28;2.60;;;;;;;3.69;63.59;99540.94;3542454;40;20049;-66
2021/04/17 02:24:00;;;;;;;3.53;2.78;;;;;;;3.67;63.49;99542.84;3550793;40;20054;-66
2021/04/17 02:26:28;;;;;;;3.35;2.47;;;;;;;3.69;63.80;99538.34;3550412;40;20050;-67
2021/04/17 02:28:55;;;;;;;4.47;2.85;;;;;;;3.70;63.70;99532.97;3541838;40;20046;-67
2021/04/17 02:31:24;;;;;;;2.90;2.65;;;;;;;3.71;63.46;99539.03;3541573;40;20391;-67
2021/04/17 02:33:52;;;;;;;4.38;2.90;;;;;;;3.58;63.33;99543.66;3542288;40;20054;-67
2021/04/17 02:36:19;;;;;;;4.28;3.17;;;;;;;3.42;63.72;99542.31;3550613;40;20090;-67
2021/04/17 02:38:45;;;;;;;4.38;2.63;;;;;;;3.34;63.97;99542.13;3549076;40;20358;-66
2021/04/17 02:41:13;;;;;;;5.32;3.17;;;;;;;3.25;64.02;99536.84;3550449;40;20050;-66
2021/04/17 02:43:40;;;;;;;3.42;2.90;;;;;;;3.20;64.22;99537.25;3550180;40;20046;-66
2021/04/17 02:46:07;;;;;;;6.60;3.13;;;;;;;3.19;64.51;99543.44;3550393;40;20061;-66
2021/04/17 02:48:34;;;;;;;3.17;2.63;;;;;;;3.17;64.74;99537.50;3550486;40;20050;-67
2021/04/17 02:51:02;;;;;;;4.32;3.00;;;;;;;3.16;64.96;99539.28;3541868;40;20335;-66
2021/04/17 02:53:29;;;;;;;4.05;2.70;;;;;;;3.19;64.75;99541.63;3550332;40;20380;-66
2021/04/17 02:55:56;;;;;;;3.50;2.90;;;;;;;3.22;64.68;99540.53;3550049;40;20380;-67
2021/04/17 02:58:23;;;;;;;3.53;3.05;;;;;;;3.19;64.41;99538.19;3550267;40;20081;-67
2021/04/17 03:00:50;;;;;;;3.28;2.92;;;;;;;3.15;64.86;99537.63;3550112;40;20050;-66
2021/04/17 03:03:17;;;;;;;4.45;2.97;;;;;;;3.16;65.04;99535.84;3550085;40;20050;-67
2021/04/17 03:05:43;;;;;;;4.63;3.50;;;;;;;3.19;64.62;99536.41;3549668;40;20660;-67
2021/04/17 03:08:12;;;;;;;3.35;2.60;;;;;;;3.16;64.88;99533.22;3549601;40;20076;-67
2021/04/17 03:10:39;;;;;;;4.30;3.20;;;;;;;3.23;64.92;99539.59;3550747;40;20078;-67
2021/04/17 03:13:08;;;;;;;5.25;3.10;;;;;;;3.21;64.61;99526.66;3551213;40;20091;-67
2021/04/17 03:15:36;;;;;;;3.38;2.70;;;;;;;3.10;64.63;99525.88;3542565;40;20088;-67
2021/04/17 03:18:03;;;;;;;3.35;3.03;;;;;;;3.02;64.76;99529.16;3551733;40;20053;-67
2021/04/17 03:20:31;;;;;;;5.63;3.20;;;;;;;2.99;65.00;99524.19;3551839;40;20412;-67
2021/04/17 03:22:58;;;;;;;8.48;3.03;;;;;;;3.03;65.26;99524.75;3550772;40;20408;-67
2021/04/17 03:25:25;;;;;;;3.95;3.10;;;;;;;3.05;64.93;99528.06;3542821;40;20058;-67
2021/04/17 03:27:52;;;;;;;4.72;3.28;;;;;;;3.09;65.01;99522.44;3542543;40;20082;-67
2021/04/17 03:30:26;;;;;;;3.30;2.92;;;;;;;3.12;64.88;99522.19;3552428;40;20042;-67
2021/04/17 03:32:53;;;;;;;;;;;;;;;3.12;64.93;99521.38;3554492;40;20054;-67
2021/04/17 03:35:20;;;;;;;4.25;2.97;;;;;;;3.08;64.54;99525.19;3554172;40;19930;-67
2021/04/17 03:37:47;;;;;;;6.80;3.75;;;;;;;3.04;64.60;99523.78;3554289;40;20384;-67
2021/04/17 03:40:15;;;;;;;4.15;3.17;;;;;;;3.01;64.70;99524.03;3555315;40;20059;-67
2021/04/17 03:42:42;;;;;;;4.65;3.13;;;;;;;2.98;65.28;99520.75;3542737;40;20054;-67
2021/04/17 03:45:11;;;;;;;6.00;3.55;;;;;;;3.07;65.12;99526.97;3551058;40;20082;-68
2021/04/17 03:47:38;;;;;;;4.53;3.03;;;;;;;3.09;64.78;99521.63;3550127;40;20090;-67
2021/04/17 03:50:07;;;;;;;2.80;2.60;;;;;;;3.02;64.94;99534.38;3550310;40;20054;-67
2021/04/17 03:52:34;;;;;;;3.67;2.95;;;;;;;3.10;65.23;99525.88;3544813;40;20049;-66
2021/04/17 03:55:00;;;;;;;4.25;3.10;;;;;;;3.14;65.20;99530.75;3545436;40;20044;-67
2021/04/17 03:57:27;;;;;;;4.00;3.00;;;;;;;3.17;65.02;99521.81;3552418;40;20061;-67
2021/04/17 03:59:55;;;;;;;3.90;2.95;;;;;;;3.18;64.78;99529.53;3552691;40;20046;-67
2021/04/17 04:02:22;;;;;;;3.72;3.22;;;;;;;3.20;64.54;99534.63;3553563;40;20051;-67
2021/04/17 04:04:49;;;;;;;4.57;3.40;;;;;;;3.26;64.91;99538.50;3553634;40;20062;-67
2021/04/17 04:07:16;;;;;;;8.05;3.90;;;;;;;3.33;64.54;99523.97;3552505;40;20062;-67
2021/04/17 04:09:42;;;;;;;4.65;3.50;;;;;;;3.35;64.44;99532.53;3541581;40;20040;-67
2021/04/17 04:12:10;;;;;;;4.53;3.40;;;;;;;3.37;64.32;99539.25;3541790;40;20074;-67
2021/04/17 04:14:37;;;;;;;4.25;3.00;;;;;;;3.30;64.09;99532.88;3549950;40;20410;-67
2021/04/17 04:17:04;;;;;;;3.95;3.50;;;;;;;3.21;64.22;99538.88;3540957;40;20042;-67
2021/04/17 04:19:32;;;;;;;4.90;3.15;;;;;;;3.13;64.29;99538.69;3550562;40;20087;-66
2021/04/17 04:21:58;;;;;;;6.00;4.15;;;;;;;3.04;64.35;99536.84;3540989;40;20363;-66
2021/04/17 04:24:25;;;;;;;3.78;3.22;;;;;;;3.03;64.59;99535.19;3549711;40;20096;-66
2021/04/17 04:26:52;;;;;;;5.53;3.40;;;;;;;3.03;64.59;99537.81;3550197;40;20050;-68
2021/04/17 04:29:19;;;;;;;3.92;3.53;;;;;;;3.04;64.79;99540.28;3550458;40;20396;-68
2021/04/17 04:31:46;;;;;;;3.63;3.10;;;;;;;3.03;64.72;99541.25;3550273;40;20399;-67
2021/04/17 04:34:15;;;;;;;4.85;3.30;;;;;;;3.04;64.78;99542.06;3550418;40;20042;-68
2021/04/17 04:36:42;;;;;;;4.47;3.58;;;;;;;3.09;64.86;99545.94;3549984;40;20121;-67
2021/04/17 04:39:09;;;;;;;3.70;3.35;;;;;;;3.12;64.88;99547.50;3550219;40;20367;-66
2021/04/17 04:41:36;;;;;;;6.32;4.63;;;;;;;3.17;64.56;99538.31;3550229;40;20414;-66
2021/04/17 04:44:04;;;;;;;5.50;4.20;;;;;;;3.16;64.32;99541.06;3541221;40;20262;-66
2021/04/17 04:46:31;;;;;;;6.45;5.03;;;;;;;3.16;64.38;99539.28;3550242;40;20054;-66
2021/04/17 04:48:58;;;;;;;4.63;4.00;;;;;;;3.20;64.45;99540.69;3549914;40;20042;-67
2021/04/17 04:51:27;;;;;;;7.60;4.60;;;;;;;3.13;64.24;99538.69;3550592;40;20080;-66
2021/04/17 04:53:54;;;;;;;4.53;3.80;;;;;;;3.09;64.50;99543.34;3550295;40;20053;-66
2021/04/17 04:56:24;;;;;;;5.03;3.53;;;;;;;3.04;64.70;99539.47;3550308;40;20054;-70
2021/04/17 04:58:51;;;;;;;4.50;3.25;;;;;;;3.01;64.45;99539.72;3549789;40;20054;-67
2021/04/17 05:01:18;;;;;;;4.18;3.55;;;;;;;2.96;64.53;99547.94;3550102;40;20053;-66
2021/04/17 05:03:45;;;;;;;4.32;3.33;;;;;;;2.94;64.71;99549.84;3549975;40;20049;-66
2021/04/17 05:06:12;;;;;;;5.57;3.45;;;;;;;2.99;64.94;99545.06;3541352;40;20436;-66
2021/04/17 05:08:39;;;;;;;3.75;3.30;;;;;;;3.02;64.61;99547.44;3550066;40;20094;-66
2021/04/17 05:11:06;;;;;;;4.97;3.72;;;;;;;3.02;64.90;99547.44;3549985;40;20050;-66
2021/04/17 05:13:33;;;;;;;5.15;3.70;;;;;;;3.09;65.12;99545.94;3540828;40;20038;-66
2021/04/17 05:15:59;;;;;;;4.90;3.88;;;;;;;3.13;64.77;99546.53;3541052;40;20046;-65
2021/04/17 05:18:26;;;;;;;5.70;4.05;;;;;;;3.07;64.43;99549.66;3549896;40;20058;-67
2021/04/17 05:20:53;;;;;;;7.53;4.57;;;;;;;3.03;64.55;99553.50;3550552;40;20054;-67
2021/04/17 05:23:20;;;;;;;10.85;4.88;;;;;;;3.03;64.81;99551.69;3550296;40;20038;-69
2021/04/17 05:25:48;;;;;;;5.18;3.53;;;;;;;3.06;65.05;99548.84;3550533;40;20053;-67
2021/04/17 05:28:15;;;;;;;8.05;4.43;;;;;;;3.16;64.67;99547.13;3550276;40;20401;-68
2021/04/17 05:30:42;;;;;;;5.75;4.47;;;;;;;3.16;64.64;99552.34;3550359;40;20081;-67
2021/04/17 05:33:09;;;;;;;6.15;4.00;;;;;;;3.21;64.74;99551.94;3549525;40;20046;-68
2021/04/17 05:35:36;;;;;;;5.80;4.63;;;;;;;3.32;64.70;99558.91;3550497;40;20078;-68
2021/04/17 05:38:03;;;;;;;6.10;4.43;;;;;;;3.36;64.46;99547.25;3550513;40;20082;-67
2021/04/17 05:40:29;;;;;;;5.88;4.38;;;;;;;3.37;64.45;99551.50;3551721;40;20054;-68
2021/04/17 05:42:57;;;;;;;8.95;5.63;;;;;;;3.50;64.40;99541.66;3550806;40;20058;-68
2021/04/17 05:45:24;;;;;;;13.35;8.65;;;;;;;3.64;64.09;99538.72;3550421;40;20043;-67
2021/04/17 05:47:51;;;;;;;11.85;6.40;;;;;;;3.69;64.22;99539.16;3550688;40;20052;-67
2021/04/17 05:50:18;;;;;;;5.82;4.10;;;;;;;3.72;63.59;99533.69;3550574;40;20057;-68
2021/04/17 05:52:45;;;;;;;6.18;4.63;;;;;;;3.83;63.82;99534.53;3550831;40;20399;-67
2021/04/17 05:55:13;;;;;;;5.25;4.40;;;;;;;3.90;63.33;99533.88;3550355;40;20058;-67
2021/04/17 05:57:42;;;;;;;7.97;4.88;;;;;;;3.93;63.13;99538.84;3550011;40;20057;-67
2021/04/17 06:00:12;;;;;;;6.50;5.20;;;;;;;3.94;63.10;99537.06;3550638;40;20046;-68
2021/04/17 06:02:42;;;;;;;9.60;5.05;;;;;;;3.94;62.87;99537.88;3551456;40;20384;-68
2021/04/17 06:05:10;;;;;;;9.40;5.22;;;;;;;3.97;63.12;99540.25;3551297;40;20046;-67
2021/04/17 06:07:38;;;;;;;7.78;4.57;;;;;;;4.09;62.92;99540.97;3550738;40;20074;-67
2021/04/17 06:10:10;;;;;;;5.82;4.68;;;;;;;4.14;62.28;99546.63;3550503;40;20428;-68
2021/04/17 06:12:37;;;;;;;4.78;4.10;;;;;;;4.17;62.71;99548.16;3550687;40;20058;-68
2021/04/17 06:15:08;;;;;;;6.50;4.63;;;;;;;4.30;62.68;99543.50;3550840;40;20054;-69
2021/04/17 06:17:36;;;;;;;6.30;4.60;;;;;;;4.55;62.68;99549.19;3550939;40;20086;-67
2021/04/17 06:20:06;;;;;;;6.68;4.70;;;;;;;4.73;62.51;99542.31;3541966;40;20054;-68
2021/04/17 06:22:33;;;;;;;11.90;5.50;;;;;;;5.03;62.34;99551.03;3553014;40;20104;-67
2021/04/17 06:25:04;;;;;;;10.52;6.20;;;;;;;5.20;61.98;99548.50;3555075;40;20039;-67
2021/04/17 06:27:33;;;;;;;9.35;5.85;;;;;;;5.34;61.77;99546.41;3553271;40;20391;-68
2021/04/17 06:30:00;;;;;;;10.52;6.50;;;;;;;5.43;61.47;99550.84;3554880;40;20034;-68
2021/04/17 06:32:27;;;;;;;9.85;5.57;;;;;;;5.64;61.16;99540.97;3554806;40;20061;-68
2021/04/17 06:34:55;;;;;;;8.85;5.72;;;;;;;5.80;60.85;99540.38;3554555;40;20057;-68
2021/04/17 06:37:22;;;;;;;11.48;7.93;;;;;;;5.89;59.84;99544.75;3550787;40;20058;-68
2021/04/17 06:39:49;;;;;;;8.00;5.97;;;;;;;5.79;59.75;99545.75;3551416;40;20050;-67
2021/04/17 06:42:19;;;;;;;9.00;6.65;;;;;;;5.80;59.74;99543.00;3551092;40;20450;-67
2021/04/17 06:44:47;;;;;;;9.50;6.40;;;;;;;5.70;59.61;99529.91;3550702;40;20061;-67
2021/04/17 06:47:15;;;;;;;8.60;5.95;;;;;;;5.74;60.04;99535.69;3550587;40;20387;-67
2021/04/17 06:49:43;;;;;;;7.70;5.38;;;;;;;5.84;59.95;99539.13;3550292;40;20349;-67
2021/04/17 06:52:14;;;;;;;5.95;5.40;;;;;;;5.92;59.63;99536.63;3551119;40;20042;-69
2021/04/17 06:54:43;;;;;;;9.85;6.63;;;;;;;6.09;59.31;99535.03;3550572;40;20065;-67
2021/04/17 06:57:10;;;;;;;8.90;6.70;;;;;;;6.11;58.21;99535.69;3550284;40;20058;-68
2021/04/17 06:59:38;;;;;;;8.07;6.28;;;;;;;6.10;58.68;99525.34;3550024;40;20046;-67
2021/04/17 07:02:05;;;;;;;6.93;6.07;;;;;;;6.23;58.71;99530.25;3550194;40;20140;-68
2021/04/17 07:04:33;;;;;;;7.30;6.25;;;;;;;6.34;58.59;99530.06;3549996;40;20048;-69
2021/04/17 07:07:03;;;;;;;9.13;6.93;;;;;;;6.40;58.24;99526.81;3550057;40;20436;-68
2021/04/17 07:09:32;;;;;;;9.60;6.40;;;;;;;6.40;58.01;99526.81;3541146;40;20050;-68
2021/04/17 07:11:58;;;;;;;13.00;9.57;;;;;;;6.47;57.66;99527.88;3550124;40;20086;-68
2021/04/17 07:14:25;;;;;;;8.27;7.05;;;;;;;6.49;57.58;99525.09;3549975;40;20082;-67
2021/04/17 07:16:57;;;;;;;11.90;9.73;;;;;;;6.60;57.44;99525.72;3548686;40;20339;-68
2021/04/17 07:19:25;;;;;;;9.60;6.10;;;;;;;6.74;57.47;99523.56;3541139;40;20058;-68
2021/04/17 07:21:52;;;;;;;10.13;7.63;;;;;;;6.89;57.15;99522.03;3541009;40;20083;-69
2021/04/17 07:24:26;;;;;;;11.68;7.28;;;;;;;7.00;56.79;99524.44;3549838;40;20046;-68
2021/04/17 07:26:54;;;;;;;7.68;6.72;;;;;;;7.16;56.57;99521.94;3549831;40;20054;-68
2021/04/17 07:29:21;;;;;;;9.82;7.30;;;;;;;7.25;56.21;99522.00;3540867;40;20054;-69
2021/04/17 07:31:51;;;;;;;30.98;14.23;;;;;;;7.34;55.97;99516.63;3549922;40;20297;-67
2021/04/17 07:34:20;;;;;;;12.65;8.43;;;;;;;7.30;55.68;99517.09;3549852;40;20038;-67
2021/04/17 07:36:53;;;;;;;11.98;7.00;;;;;;;7.45;55.24;99519.00;3541527;40;20381;-67
2021/04/17 07:39:36;;;;;;;9.13;5.70;;;;;;;7.56;55.02;99515.31;3549479;40;20054;-67
2021/04/17 07:42:07;;;;;;;10.48;5.75;;;;;;;7.71;54.29;99510.25;3549520;40;20042;-66
2021/04/17 07:44:37;;;;;;;9.60;5.70;;;;;;;7.83;54.17;99514.28;3549438;40;20093;-66
2021/04/17 07:47:05;;;;;;;7.15;5.70;;;;;;;7.99;53.26;99523.22;3548943;40;20129;-66
2021/04/17 07:49:33;;;;;;;8.63;6.35;;;;;;;8.06;52.11;99508.47;3549415;40;20046;-67
2021/04/17 07:52:04;;;;;;;5.53;5.00;;;;;;;8.05;51.88;99512.91;3549950;40;20056;-67
2021/04/17 07:54:32;;;;;;;8.20;5.50;;;;;;;8.06;51.97;99514.53;3550062;40;20074;-68
2021/04/17 07:57:06;;;;;;;10.85;6.03;;;;;;;8.09;51.99;99505.50;3550048;40;20062;-68
2021/04/17 07:59:33;;;;;;;6.72;4.50;;;;;;;8.11;51.51;99504.34;3551252;40;20054;-66
2021/04/17 08:02:00;;;;;;;6.43;4.35;;;;;;;8.32;49.69;99503.91;3550756;40;20331;-65
2021/04/17 08:04:29;;;;;;;5.28;4.13;;;;;;;8.42;48.46;99502.00;3550405;40;20120;-65
2021/04/17 08:06:58;;;;;;;8.57;3.97;;;;;;;8.36;48.20;99499.97;3550182;40;20057;-65
2021/04/17 08:09:31;;;;;;;7.18;4.10;;;;;;;8.53;47.12;99500.03;3550493;40;20389;-67
2021/04/17 08:12:00;;;;;;;11.85;4.80;;;;;;;8.61;46.28;99495.63;3550905;40;20057;-65
2021/04/17 08:14:29;;;;;;;7.80;3.95;;;;;;;8.71;45.75;99492.00;3551003;40;20062;-65
2021/04/17 08:16:57;;;;;;;11.75;5.28;;;;;;;8.78;45.39;99491.19;3549828;40;20061;-66
2021/04/17 08:19:25;;;;;;;10.93;6.13;;;;;;;8.81;45.54;99498.75;3550667;40;20057;-65
2021/04/17 08:21:52;;;;;;;10.93;5.07;;;;;;;8.92;44.62;99497.59;3551758;40;20053;-66
2021/04/17 08:24:22;;;;;;;5.97;3.78;;;;;;;8.90;45.20;99489.88;3549908;40;20050;-66
2021/04/17 08:26:54;;;;;;;8.48;3.60;;;;;;;8.91;44.87;99494.16;3550716;40;20030;-65
2021/04/17 08:29:47;;;;;;;5.47;3.65;;;;;;;9.07;43.99;99489.88;3550797;40;20057;-66
2021/04/17 08:32:33;;;;;;;6.97;3.67;;;;;;;9.18;43.68;99481.59;3551088;40;20053;-65
2021/04/17 08:35:03;;;;;;;6.32;3.83;;;;;;;9.26;42.62;99484.22;3550914;40;20057;-66
2021/04/17 08:37:32;;;;;;;6.57;3.78;;;;;;;9.30;42.50;99485.53;3550773;40;20050;-66
2021/04/17 08:40:04;;;;;;;6.35;4.82;;;;;;;9.27;42.58;99472.69;3550902;40;20408;-66
2021/04/17 08:42:42;;;;;;;6.85;4.68;;;;;;;9.31;42.93;99478.47;3550770;40;20054;-67
2021/04/17 08:45:14;;;;;;;5.95;4.43;;;;;;;9.46;42.12;99481.22;3550442;40;20103;-66
2021/04/17 08:47:47;;;;;;;7.80;3.50;;;;;;;9.54;41.56;99478.56;3550368;40;20050;-66
2021/04/17 08:50:30;;;;;;;6.47;5.00;;;;;;;9.67;42.12;99478.84;3541565;40;20336;-66
2021/04/17 08:52:59;;;;;;;5.60;3.38;;;;;;;9.86;40.88;99478.44;3549442;40;20053;-66
2021/04/17 08:55:46;;;;;;;6.18;3.75;;;;;;;9.87;40.93;99479.25;3550358;40;20098;-67
2021/04/17 08:58:15;;;;;;;6.18;3.58;;;;;;;9.92;40.69;99474.31;3549605;40;20050;-67
2021/04/17 09:01:03;;;;;;;5.30;3.70;;;;;;;10.00;41.05;99476.91;3550288;40;20061;-66
2021/04/17 09:03:39;;;;;;;5.90;3.50;;;;;;;10.08;40.35;99478.69;3550360;40;20054;-67
2021/04/17 09:06:09;;;;;;;5.53;3.45;;;;;;;10.01;40.25;99473.28;3541178;40;20356;-67
2021/04/17 09:08:38;;;;;;;4.20;3.08;;;;;;;10.08;39.92;99479.53;3549255;40;20054;-67
2021/04/17 09:11:33;;;;;;;7.32;3.53;;;;;;;10.12;39.64;99474.69;3550177;40;20074;-67
2021/04/17 09:14:00;;;;;;;5.78;4.07;;;;;;;9.99;39.86;99471.78;3550464;40;20054;-67
2021/04/17 09:16:37;;;;;;;8.35;3.50;;;;;;;10.04;39.88;99477.38;3550019;40;20050;-66
2021/04/17 09:19:04;;;;;;;4.38;3.40;;;;;;;10.05;39.97;99465.84;3552550;40;20050;-66
2021/04/17 09:21:35;;;;;;;6.22;3.42;;;;;;;10.16;40.08;99470.69;3555974;40;20133;-67
2021/04/17 09:24:24;;;;;;;4.05;3.42;;;;;;;10.42;39.52;99457.22;3555414;40;20042;-66
2021/04/17 09:26:50;;;;;;;5.95;3.40;;;;;;;10.73;38.60;99458.97;3555601;40;20069;-66
2021/04/17 09:29:27;;;;;;;3.15;2.85;;;;;;;10.76;38.69;99458.63;3548105;40;20042;-66
2021/04/17 09:31:58;;;;;;;7.82;3.40;;;;;;;10.76;38.73;99448.84;3545318;40;20050;-66
2021/04/17 09:34:25;;;;;;;6.85;4.70;;;;;;;10.85;38.61;99455.72;3559528;40;20097;-66
2021/04/17 09:36:52;;;;;;;4.85;3.38;;;;;;;10.96;37.81;99453.66;3558632;40;20048;-66
2021/04/17 09:39:26;;;;;;;3.95;3.22;;;;;;;10.90;38.07;99452.56;3545970;40;20054;-66
2021/04/17 09:41:55;;;;;;;6.38;3.33;;;;;;;10.85;37.71;99453.06;3555060;40;20053;-66
2021/04/17 09:44:22;;;;;;;6.93;2.88;;;;;;;10.78;37.55;99456.63;3555334;40;20050;-65
2021/04/17 09:47:05;;;;;;;7.22;3.50;;;;;;;10.79;37.80;99442.41;3559245;40;20053;-66
2021/04/17 09:49:34;;;;;;;5.55;3.50;;;;;;;10.68;38.67;99437.53;3560921;40;20077;-66
2021/04/17 09:52:01;;;;;;;4.50;3.45;;;;;;;11.01;38.01;99435.41;3547727;40;20053;-66
2021/04/17 09:54:28;;;;;;;5.22;4.07;;;;;;;11.28;37.17;99437.47;3554911;40;20367;-66
2021/04/17 09:56:56;;;;;;;5.95;3.53;;;;;;;11.37;37.20;99428.44;3558322;40;20053;-67
2021/04/17 09:59:22;;;;;;;5.07;3.30;;;;;;;11.51;36.53;99432.09;3561229;40;20018;-67
2021/04/17 10:01:53;;;;;;;7.32;4.10;;;;;;;11.36;37.08;99431.28;3552351;40;20054;-66
2021/04/17 10:04:21;;;;;;;5.88;4.20;;;;;;;11.34;37.39;99420.03;3556972;40;20070;-66
2021/04/17 10:06:55;;;;;;;6.25;3.88;;;;;;;11.39;36.95;99415.84;3551763;40;20408;-66
2021/04/17 10:09:22;;;;;;;6.07;3.85;;;;;;;11.35;37.04;99411.91;3551038;40;20048;-66
2021/04/17 10:11:49;;;;;;;9.88;3.63;;;;;;;11.10;36.71;99427.25;3541044;40;20042;-67
2021/04/17 10:14:17;;;;;;;5.20;3.47;;;;;;;10.77;35.32;99421.41;3550131;40;20109;-66
2021/04/17 10:16:46;;;;;;;10.45;3.15;;;;;;;10.76;35.47;99416.31;3549834;40;20308;-66
2021/04/17 10:19:16;;;;;;;3.90;2.70;;;;;;;10.70;35.39;99412.56;3549531;40;20050;-67
2021/04/17 10:21:46;;;;;;;6.43;3.95;;;;;;;10.84;35.92;99405.66;3540715;40;20339;-66
2021/04/17 10:24:25;;;;;;;4.68;3.33;;;;;;;10.77;36.44;99421.41;3549710;40;20042;-66
2021/04/17 10:26:56;;;;;;;5.18;3.30;;;;;;;10.49;36.70;99417.66;3550096;40;20082;-66
2021/04/17 10:29:35;;;;;;;6.47;3.92;;;;;;;10.61;37.38;99414.47;3550061;40;20050;-66
2021/04/17 10:32:04;;;;;;;7.60;4.22;;;;;;;10.89;37.11;99403.28;3541222;40;20136;-65
2021/04/17 10:34:32;;;;;;;6.60;3.85;;;;;;;10.88;37.23;99393.72;3550329;40;20321;-66
2021/04/17 10:37:03;;;;;;;5.28;3.33;;;;;;;10.97;36.00;99395.28;3550372;40;20295;-66
2021/04/17 10:39:30;;;;;;;7.10;4.63;;;;;;;11.24;35.73;99385.91;3553357;40;20388;-67
2021/04/17 10:42:03;;;;;;;5.85;3.58;;;;;;;11.33;35.10;99394.56;3553060;40;20083;-67
2021/04/17 10:44:30;;;;;;;14.93;8.23;;;;;;;11.39;35.62;99386.72;3550441;40;20046;-67
2021/04/17 10:46:59;;;;;;;7.18;5.85;;;;;;;11.43;35.06;99379.25;3553748;40;20360;-66
2021/04/17 10:49:32;;;;;;;10.13;6.30;;;;;;;11.52;34.46;99387.91;3553301;40;20042;-66
2021/04/17 10:52:02;;;;;;;6.13;4.22;;;;;;;11.53;35.05;99385.06;3553286;40;20050;-67
2021/04/17 10:54:30;;;;;;;7.03;5.40;;;;;;;11.60;34.87;99385.97;3551100;40;20408;-66
2021/04/17 10:57:00;;;;;;;11.45;7.43;;;;;;;11.51;35.29;99380.94;3549522;40;20077;-66
2021/04/17 11:00:01;;;;;;;4.73;4.00;;;;;;;11.33;35.56;99381.34;3548734;40;20150;-67
2021/04/17 11:02:30;;;;;;;5.93;3.70;;;;;;;11.30;35.34;99377.22;3518967;40;20280;-66
2021/04/17 11:05:02;;;;;;;8.38;4.25;;;;;;;11.38;34.57;99379.78;3544857;40;20050;-67
2021/04/17 11:07:34;;;;;;;4.07;3.45;;;;;;;11.47;34.26;99377.03;3553885;40;20087;-66
2021/04/17 11:10:01;;;;;;;5.90;3.28;;;;;;;11.28;34.55;99371.31;3553008;40;20061;-66
2021/04/17 11:12:33;;;;;;;4.40;3.28;;;;;;;11.35;33.98;99377.50;3550886;40;20069;-67
2021/04/17 11:15:14;;;;;;;5.10;3.55;;;;;;;11.43;34.62;99366.00;3549989;40;20339;-67
2021/04/17 11:17:42;;;;;;;5.70;3.60;;;;;;;11.66;33.82;99352.63;3548211;40;20049;-66
2021/04/17 11:20:18;;;;;;;7.78;4.18;;;;;;;11.97;33.93;99354.22;3540379;40;20058;-65
2021/04/17 11:22:46;;;;;;;8.43;3.53;;;;;;;12.21;32.52;99348.56;3549659;40;20046;-65
2021/04/17 11:25:14;;;;;;;8.93;5.07;;;;;;;12.36;32.33;99340.53;3549285;40;20106;-65
2021/04/17 11:27:44;;;;;;;5.57;4.28;;;;;;;12.39;31.85;99337.50;3548580;40;20073;-65
2021/04/17 11:30:13;;;;;;;7.32;5.05;;;;;;;12.28;31.94;99338.00;3549343;40;20047;-66
2021/04/17 11:32:43;;;;;;;5.97;3.10;;;;;;;12.33;30.73;99341.75;3551157;40;20054;-67
2021/04/17 11:35:12;;;;;;;5.72;4.25;;;;;;;12.29;30.71;99342.31;3551027;40;20049;-66
2021/04/17 11:37:39;;;;;;;6.70;3.90;;;;;;;12.37;30.78;99336.88;3550561;40;20050;-66
2021/04/17 11:40:08;;;;;;;5.35;3.83;;;;;;;12.31;31.44;99340.28;3550929;40;20054;-67
2021/04/17 11:42:35;;;;;;;5.45;3.50;;;;;;;12.03;32.02;99340.22;3550979;40;20073;-66
2021/04/17 11:45:03;;;;;;;5.03;3.75;;;;;;;12.19;31.90;99329.38;3550637;40;20408;-66
2021/04/17 11:47:30;;;;;;;6.70;5.38;;;;;;;12.54;31.90;99330.28;3550223;40;20086;-65
2021/04/17 11:49:57;;;;;;;7.78;4.57;;;;;;;12.88;31.16;99328.69;3550088;40;20408;-66